aviador You're here:

K2V6 Decoded Metar

in
Report Time2018-05-27 00:59:00
UTC Time2018-05-27 01:17:14
Flight Rules vfr VFR
Wind150° at 17 Gusting to 21 kt
W.Rank150° ranks 5
Current wind is above 150° avg. (9.0)
Visibility9999 m
Phenomena:N/A
Clouds:N/A
Expected CloudBase > 8,000 ft AGL from Temp-Dew spread
CeilingNone
Temp27°C
Dew Point07°C (28% RH)
Heat Index26.3°C
AAT20.2°C
QNH1008 hPa
Raw Report
K2V6 270059Z AUTO 15017G21KT 10SM CLR 27/07 A2978 RMK AO2=

Extra information for K2V6:More info

Social comments